Time;durP1;ratioP1;P1;durP2;ratioP2;P2;SDS_P1;SDS_P2;PMS_P1;PMS_P2;Temp;Humidity;BMP_temperature;BMP_pressure;BME280_temperature;BME280_humidity;BME280_pressure;Samples;Min_cycle;Max_cycle;Signal;HPM_P1;HPM_P2
2023/10/02 00:04:18;;;;;;;20.67;10.73;;;18.60;1.00;;;;;;20488246;28;20052;-43
2023/10/02 00:14:19;;;;;;;18.90;10.20;;;18.60;1.00;;;;;;20489782;28;20049;-43
2023/10/02 00:24:19;;;;;;;18.30;9.95;;;18.50;1.00;;;;;;20481839;28;20027;-43
2023/10/02 00:34:32;;;;;;;18.95;9.13;;;18.20;1.00;;;;;;20479502;28;20053;-43
2023/10/02 00:54:53;;;;;;;22.05;10.82;;;18.10;1.00;;;;;;20478526;28;20026;-43
2023/10/02 01:04:56;;;;;;;18.53;10.17;;;18.00;1.00;;;;;;20474967;28;20148;-42
2023/10/02 01:15:06;;;;;;;24.20;12.18;;;18.00;1.00;;;;;;20489393;28;20462;-43
2023/10/02 01:25:14;;;;;;;19.83;10.55;;;18.00;1.00;;;;;;20496697;28;20513;-43
2023/10/02 01:35:18;;;;;;;;;;;18.10;1.00;;;;;;20493533;28;20390;-42
2023/10/02 01:45:20;;;;;;;23.70;11.68;;;18.00;1.00;;;;;;20495543;28;19918;-43
2023/10/02 01:55:29;;;;;;;20.35;11.48;;;18.00;1.00;;;;;;20491208;28;20398;-42
2023/10/02 02:05:30;;;;;;;21.65;10.63;;;17.80;1.00;;;;;;20492801;28;20050;-42
2023/10/02 02:15:32;;;;;;;21.80;11.05;;;17.90;1.00;;;;;;20495562;28;20051;-43
2023/10/02 02:25:32;;;;;;;21.10;11.13;;;17.80;1.00;;;;;;20496908;28;20051;-43
2023/10/02 02:35:35;;;;;;;21.88;10.73;;;17.70;1.30;;;;;;20492300;28;20673;-43
2023/10/02 02:45:36;;;;;;;22.30;10.70;;;17.60;1.40;;;;;;20495687;28;20069;-43
2023/10/02 02:55:37;;;;;;;23.30;11.93;;;17.50;5.40;;;;;;20493716;28;20038;-43
2023/10/02 03:05:38;;;;;;;21.65;11.52;;;17.40;12.10;;;;;;20490906;28;20050;-43
2023/10/02 03:15:47;;;;;;;22.67;11.45;;;17.20;14.10;;;;;;20488789;28;20345;-42
2023/10/02 03:25:47;;;;;;;22.55;11.55;;;17.20;14.50;;;;;;20488702;28;20043;-43
2023/10/02 03:35:58;;;;;;;21.15;10.70;;;17.10;15.00;;;;;;20489913;28;20066;-42
2023/10/02 03:45:59;;;;;;;21.30;10.75;;;16.90;23.80;;;;;;20491291;28;20193;-43
2023/10/02 04:06:33;;;;;;;25.42;12.27;;;16.90;24.90;;;;;;20491884;28;20074;-42
2023/10/02 04:16:33;;;;;;;23.20;11.98;;;16.90;25.80;;;;;;20482147;28;20073;-43
2023/10/02 04:26:34;;;;;;;23.25;12.20;;;16.80;37.70;;;;;;20493855;28;20047;-42
2023/10/02 04:36:34;;;;;;;25.50;13.10;;;16.90;28.10;;;;;;20490221;28;20062;-43
2023/10/02 04:46:35;;;;;;;21.83;12.43;;;16.80;37.90;;;;;;20483113;28;20097;-43
2023/10/02 04:56:36;;;;;;;23.08;12.07;;;16.80;37.70;;;;;;20485614;28;20039;-43
2023/10/02 05:06:44;;;;;;;20.85;11.15;;;16.90;28.10;;;;;;20488975;28;20078;-43
2023/10/02 05:16:46;;;;;;;24.77;13.15;;;16.70;35.70;;;;;;20485930;28;20465;-43
2023/10/02 05:26:47;;;;;;;23.95;12.65;;;16.60;57.50;;;;;;20482898;28;20032;-43
2023/10/02 05:47:07;;;;;;;23.65;11.57;;;16.40;77.30;;;;;;20482739;28;20042;-43
2023/10/02 05:57:14;;;;;;;23.55;12.10;;;16.40;73.70;;;;;;20493968;28;20794;-43
2023/10/02 06:07:32;;;;;;;24.67;12.48;;;16.50;73.00;;;;;;20509309;28;20047;-43
2023/10/02 06:17:36;;;;;;;24.92;12.55;;;16.60;57.40;;;;;;20503574;28;20049;-43
2023/10/02 06:27:41;;;;;;;25.37;15.50;;;16.60;58.20;;;;;;20490141;28;20047;-43
2023/10/02 06:37:45;;;;;;;23.48;12.82;;;16.60;58.40;;;;;;20510121;28;20503;-42
2023/10/02 06:47:48;;;;;;;26.70;13.15;;;16.50;62.50;;;;;;20488984;28;20043;-43
2023/10/02 06:57:52;;;;;;;22.83;11.02;;;16.60;72.30;;;;;;20506631;28;20426;-42
2023/10/02 07:08:01;;;;;;;25.80;13.00;;;16.50;72.20;;;;;;20495507;28;20079;-43
2023/10/02 07:18:04;;;;;;;26.17;13.27;;;16.70;71.50;;;;;;20497550;28;20043;-43
2023/10/02 07:28:05;;;;;;;23.63;13.05;;;16.70;85.90;;;;;;20503510;28;20046;-43
2023/10/02 07:38:08;;;;;;;28.45;13.32;;;16.80;68.50;;;;;;20490227;28;20469;-43
2023/10/02 07:48:11;;;;;;;24.42;12.98;;;17.00;87.60;;;;;;20507053;28;20109;-42
2023/10/02 07:58:13;;;;;;;28.27;14.68;;;17.20;57.60;;;;;;20497031;28;20042;-43
2023/10/02 08:08:16;;;;;;;23.40;11.95;;;17.20;71.80;;;;;;20499075;28;20055;-43
2023/10/02 08:18:19;;;;;;;26.45;13.65;;;17.40;69.70;;;;;;20488435;28;20039;-43
2023/10/02 08:28:23;;;;;;;23.02;13.40;;;17.60;63.50;;;;;;20491306;28;20546;-42
2023/10/02 08:38:26;;;;;;;28.52;14.55;;;17.80;71.50;;;;;;20489557;28;20537;-43
2023/10/02 08:48:31;;;;;;;32.58;15.35;;;18.00;55.30;;;;;;20485968;28;20138;-42
2023/10/02 08:58:32;;;;;;;34.15;16.77;;;18.10;60.90;;;;;;20491149;28;20034;-43
2023/10/02 09:09:15;;;;;;;34.80;19.05;;;18.30;70.20;;;;;;20495068;28;20093;-43
2023/10/02 09:19:28;;;;;;;31.15;17.75;;;18.50;62.40;;;;;;20501221;28;20035;-43
2023/10/02 09:29:33;;;;;;;38.03;21.85;;;18.90;54.10;;;;;;20509065;28;20046;-42
2023/10/02 09:39:38;;;;;;;40.67;20.88;;;19.50;25.30;;;;;;20510352;28;20165;-42
2023/10/02 09:49:51;;;;;;;39.50;20.73;;;19.70;12.50;;;;;;20495299;28;20043;-43
2023/10/02 09:59:54;;;;;;;37.72;19.58;;;20.10;4.20;;;;;;20507719;28;20907;-43
2023/10/02 10:10:45;;;;;;;35.90;17.95;;;20.10;9.70;;;;;;20515611;28;20046;-43
2023/10/02 10:20:46;;;;;;;30.25;16.75;;;20.10;3.90;;;;;;20510156;28;20501;-43
2023/10/02 10:30:50;;;;;;;27.92;15.52;;;20.10;5.70;;;;;;20515431;28;20042;-43
2023/10/02 10:41:01;;;;;;;32.17;15.77;;;20.50;2.80;;;;;;20506376;28;20058;-43
2023/10/02 10:51:20;;;;;;;22.58;13.00;;;20.70;1.00;;;;;;20502913;28;20140;-43
2023/10/02 11:01:21;;;;;;;23.38;13.63;;;21.00;1.00;;;;;;20502368;28;22051;-43
2023/10/02 11:11:25;;;;;;;22.90;12.13;;;21.70;1.00;;;;;;20504898;28;20101;-43
2023/10/02 11:21:26;;;;;;;20.38;12.05;;;22.30;1.00;;;;;;20500627;28;20043;-42
2023/10/02 11:31:29;;;;;;;20.83;11.35;;;22.60;1.00;;;;;;20495624;28;20062;-42
2023/10/02 11:41:30;;;;;;;18.27;11.10;;;22.50;1.00;;;;;;20498542;28;20074;-43
2023/10/02 11:51:30;;;;;;;16.90;10.80;;;22.40;1.00;;;;;;20495422;28;20047;-43
2023/10/02 12:01:31;;;;;;;23.70;11.73;;;22.10;1.00;;;;;;20490555;28;20058;-43
2023/10/02 12:11:34;;;;;;;20.35;10.73;;;22.40;1.00;;;;;;20493527;28;20047;-43
2023/10/02 12:21:36;;;;;;;23.40;12.65;;;22.70;1.00;;;;;;20490401;28;20058;-43
2023/10/02 12:31:36;;;;;;;20.58;11.73;;;23.10;1.00;;;;;;20494665;28;20054;-42
2023/10/02 12:41:41;;;;;;;22.20;11.52;;;23.40;1.00;;;;;;20488796;28;20517;-43
2023/10/02 12:51:41;;;;;;;20.05;11.10;;;23.60;1.00;;;;;;20487339;28;20499;-43
2023/10/02 13:01:44;;;;;;;18.67;10.15;;;23.70;1.00;;;;;;20492479;28;20534;-43
2023/10/02 13:11:44;;;;;;;20.50;10.25;;;23.90;1.00;;;;;;20502252;28;20139;-43
2023/10/02 13:21:51;;;;;;;21.27;11.00;;;24.10;1.00;;;;;;20494302;28;20043;-43
2023/10/02 13:31:52;;;;;;;;;;;24.10;1.00;;;;;;20494230;28;20043;-44
2023/10/02 13:41:52;;;;;;;17.85;9.43;;;24.30;1.00;;;;;;20495336;28;19957;-43
2023/10/02 13:51:54;;;;;;;20.10;11.90;;;24.20;1.00;;;;;;20493232;28;20446;-43
2023/10/02 14:01:55;;;;;;;19.63;10.25;;;24.40;1.00;;;;;;20495392;28;20037;-44
2023/10/02 14:11:55;;;;;;;19.45;10.48;;;24.20;1.00;;;;;;20488643;28;21567;-43
2023/10/02 14:21:56;;;;;;;18.58;10.35;;;24.70;1.00;;;;;;20496292;28;20047;-43
2023/10/02 14:31:57;;;;;;;18.90;9.85;;;24.80;1.00;;;;;;20502567;28;20384;-43
2023/10/02 14:41:58;;;;;;;20.10;11.05;;;24.90;1.00;;;;;;20497192;28;20067;-43
2023/10/02 14:51:59;;;;;;;18.00;9.77;;;24.60;1.00;;;;;;20499122;28;20047;-43
2023/10/02 15:02:00;;;;;;;18.48;10.55;;;24.30;1.00;;;;;;20497880;28;20074;-44
2023/10/02 15:12:01;;;;;;;20.70;11.25;;;24.30;1.00;;;;;;20495231;28;20130;-43
2023/10/02 15:22:01;;;;;;;18.80;10.10;;;24.10;1.00;;;;;;20494534;28;21463;-43
2023/10/02 15:32:02;;;;;;;16.17;8.82;;;24.20;1.00;;;;;;20501393;28;20054;-43
2023/10/02 15:42:03;;;;;;;20.60;10.17;;;24.00;1.00;;;;;;20495141;28;20454;-44
2023/10/02 15:52:04;;;;;;;18.55;9.13;;;23.90;1.00;;;;;;20496279;28;20418;-43
2023/10/02 16:02:05;;;;;;;17.33;9.30;;;23.70;1.00;;;;;;20494269;28;20109;-43
2023/10/02 16:12:06;;;;;;;17.13;9.07;;;23.60;1.00;;;;;;20482393;28;20121;-43
2023/10/02 16:22:08;;;;;;;17.85;9.25;;;23.70;1.00;;;;;;20494301;28;20093;-43
2023/10/02 16:32:09;;;;;;;14.82;8.98;;;23.40;1.00;;;;;;20498605;28;20081;-43
2023/10/02 16:42:10;;;;;;;16.73;9.15;;;23.30;1.00;;;;;;20501060;28;20051;-43
2023/10/02 16:52:14;;;;;;;17.42;8.52;;;22.90;1.00;;;;;;20501021;28;20683;-43
2023/10/02 17:02:15;;;;;;;17.23;8.13;;;22.60;1.00;;;;;;20488404;28;20549;-43
2023/10/02 17:12:17;;;;;;;17.23;9.63;;;22.10;1.00;;;;;;20473644;28;20334;-43
2023/10/02 17:22:19;;;;;;;15.63;8.68;;;21.60;1.00;;;;;;20472441;28;20360;-43
2023/10/02 17:32:19;;;;;;;19.05;9.23;;;21.30;1.00;;;;;;20464163;28;20380;-43
2023/10/02 17:42:20;;;;;;;18.98;8.65;;;21.00;1.00;;;;;;20472179;28;20162;-43
2023/10/02 17:52:21;;;;;;;15.07;8.38;;;20.80;1.00;;;;;;20466677;28;20050;-43
2023/10/02 18:02:21;;;;;;;18.65;9.68;;;20.70;8.30;;;;;;20493224;28;20251;-43
2023/10/02 18:12:22;;;;;;;18.67;9.27;;;20.50;15.00;;;;;;20490486;28;20046;-44
2023/10/02 18:22:24;;;;;;;17.77;9.30;;;20.40;23.50;;;;;;20489828;28;20481;-43
2023/10/02 18:32:25;;;;;;;18.20;9.30;;;20.20;28.10;;;;;;20491620;28;20608;-43
2023/10/02 18:42:25;;;;;;;19.83;10.80;;;20.00;31.50;;;;;;20491168;28;20475;-42
2023/10/02 18:52:26;;;;;;;20.60;11.07;;;19.90;45.60;;;;;;20491854;28;20150;-43
2023/10/02 19:02:28;;;;;;;23.10;11.32;;;19.80;61.40;;;;;;20483744;28;20034;-43
2023/10/02 19:12:29;;;;;;;26.02;14.02;;;19.80;73.40;;;;;;20485284;28;20222;-43
2023/10/02 19:22:31;;;;;;;23.45;12.43;;;19.80;89.60;;;;;;20477459;28;20035;-43
2023/10/02 19:32:31;;;;;;;28.00;16.42;;;19.80;88.50;;;;;;20479227;28;20161;-43
2023/10/02 19:42:32;;;;;;;29.83;16.42;;;19.70;95.20;;;;;;20480661;28;20455;-43
2023/10/02 19:52:33;;;;;;;29.33;16.53;;;19.70;93.90;;;;;;20477945;28;20039;-43
2023/10/02 20:02:34;;;;;;;26.25;15.98;;;19.60;95.60;;;;;;20472150;28;21510;-43
2023/10/02 20:12:36;;;;;;;24.10;14.02;;;19.40;92.20;;;;;;20467044;28;20074;-43
2023/10/02 20:22:37;;;;;;;21.25;12.32;;;19.40;97.90;;;;;;20476348;28;20082;-43
2023/10/02 20:32:38;;;;;;;27.73;13.43;;;19.30;99.90;;;;;;20473145;28;20289;-43
2023/10/02 20:42:39;;;;;;;24.58;14.57;;;19.20;99.90;;;;;;20470263;28;20035;-43
2023/10/02 20:52:40;;;;;;;26.48;14.25;;;19.10;99.90;;;;;;20466171;28;20130;-43
2023/10/02 21:02:42;;;;;;;30.77;16.33;;;19.10;99.90;;;;;;20469852;28;20358;-43
2023/10/02 21:12:43;;;;;;;24.98;14.60;;;19.10;99.90;;;;;;20470723;28;21608;-44
2023/10/02 21:22:46;;;;;;;26.02;15.73;;;19.00;99.90;;;;;;20480743;28;20085;-43
2023/10/02 21:32:47;;;;;;;30.15;15.13;;;19.00;99.90;;;;;;20485998;28;20051;-43
2023/10/02 21:42:47;;;;;;;29.52;16.00;;;18.80;99.90;;;;;;20488151;28;20093;-43
2023/10/02 21:52:48;;;;;;;34.03;15.63;;;18.80;99.90;;;;;;20484083;28;20651;-43
2023/10/02 22:02:49;;;;;;;35.03;17.73;;;18.90;99.90;;;;;;20488412;28;20472;-44
2023/10/02 22:12:50;;;;;;;30.30;14.57;;;19.10;94.40;;;;;;20482046;28;20062;-43
2023/10/02 22:22:51;;;;;;;29.67;14.80;;;19.50;31.10;;;;;;20486167;28;20050;-43
2023/10/02 22:32:52;;;;;;;34.58;16.02;;;19.70;1.00;;;;;;20481992;28;20054;-43
2023/10/02 22:42:53;;;;;;;28.10;13.77;;;19.90;1.00;;;;;;20499526;28;20078;-43
2023/10/02 22:52:54;;;;;;;27.70;14.00;;;20.00;1.00;;;;;;20480213;28;20057;-43
2023/10/02 23:02:54;;;;;;;30.67;13.60;;;20.20;1.00;;;;;;20480062;28;20074;-43
2023/10/02 23:12:55;;;;;;;34.08;15.43;;;20.30;1.00;;;;;;20479588;28;20042;-43
2023/10/02 23:22:56;;;;;;;31.10;14.23;;;20.30;1.00;;;;;;20465768;28;20108;-43
2023/10/02 23:32:58;;;;;;;34.10;15.00;;;20.40;1.00;;;;;;20477489;28;20113;-43
2023/10/02 23:43:00;;;;;;;36.55;14.38;;;20.30;1.00;;;;;;20479876;28;20039;-43
2023/10/02 23:53:00;;;;;;;33.35;14.98;;;20.40;1.00;;;;;;20477115;28;20051;-43
